sensor_id;sensor_type;location;lat;lon;timestamp;P1;durP1;ratioP1;P2;durP2;ratioP2
70825;SDS011;58446;41.490;22.098;2023-03-22T00:01:26;14.13;;;9.50;;
70825;SDS011;58446;41.490;22.098;2023-03-22T00:03:56;12.18;;;8.15;;
70825;SDS011;58446;41.490;22.098;2023-03-22T00:06:22;12.43;;;9.10;;
70825;SDS011;58446;41.490;22.098;2023-03-22T00:08:49;12.07;;;8.13;;
70825;SDS011;58446;41.490;22.098;2023-03-22T00:11:16;11.55;;;7.50;;
70825;SDS011;58446;41.490;22.098;2023-03-22T00:13:42;10.57;;;7.05;;
70825;SDS011;58446;41.490;22.098;2023-03-22T00:16:11;10.20;;;6.50;;
70825;SDS011;58446;41.490;22.098;2023-03-22T00:18:37;10.18;;;6.78;;
70825;SDS011;58446;41.490;22.098;2023-03-22T00:21:04;10.27;;;7.70;;
70825;SDS011;58446;41.490;22.098;2023-03-22T00:23:30;10.68;;;7.70;;
70825;SDS011;58446;41.490;22.098;2023-03-22T00:25:56;10.57;;;7.23;;
70825;SDS011;58446;41.490;22.098;2023-03-22T00:28:21;10.83;;;7.47;;
70825;SDS011;58446;41.490;22.098;2023-03-22T00:30:52;9.95;;;7.28;;
70825;SDS011;58446;41.490;22.098;2023-03-22T00:33:22;11.40;;;7.55;;
70825;SDS011;58446;41.490;22.098;2023-03-22T00:35:52;10.83;;;7.53;;
70825;SDS011;58446;41.490;22.098;2023-03-22T00:38:19;9.52;;;6.72;;
70825;SDS011;58446;41.490;22.098;2023-03-22T00:40:45;10.43;;;7.28;;
70825;SDS011;58446;41.490;22.098;2023-03-22T00:43:11;9.27;;;6.20;;
70825;SDS011;58446;41.490;22.098;2023-03-22T00:45:36;9.40;;;6.68;;
70825;SDS011;58446;41.490;22.098;2023-03-22T00:48:05;9.25;;;6.43;;
70825;SDS011;58446;41.490;22.098;2023-03-22T00:50:32;9.02;;;6.32;;
70825;SDS011;58446;41.490;22.098;2023-03-22T00:52:58;10.13;;;6.67;;
70825;SDS011;58446;41.490;22.098;2023-03-22T00:55:23;9.40;;;6.85;;
70825;SDS011;58446;41.490;22.098;2023-03-22T00:57:49;9.67;;;6.23;;
70825;SDS011;58446;41.490;22.098;2023-03-22T01:00:15;9.07;;;5.93;;
70825;SDS011;58446;41.490;22.098;2023-03-22T01:02:41;8.50;;;5.82;;
70825;SDS011;58446;41.490;22.098;2023-03-22T01:05:07;9.02;;;6.15;;
70825;SDS011;58446;41.490;22.098;2023-03-22T01:07:34;8.65;;;5.88;;
70825;SDS011;58446;41.490;22.098;2023-03-22T01:10:03;8.77;;;6.38;;
70825;SDS011;58446;41.490;22.098;2023-03-22T01:12:30;8.87;;;6.23;;
70825;SDS011;58446;41.490;22.098;2023-03-22T01:14:55;9.80;;;6.10;;
70825;SDS011;58446;41.490;22.098;2023-03-22T01:17:21;8.50;;;5.77;;
70825;SDS011;58446;41.490;22.098;2023-03-22T01:19:47;9.18;;;6.20;;
70825;SDS011;58446;41.490;22.098;2023-03-22T01:22:12;9.20;;;6.17;;
70825;SDS011;58446;41.490;22.098;2023-03-22T01:24:38;8.30;;;5.35;;
70825;SDS011;58446;41.490;22.098;2023-03-22T01:27:03;9.40;;;5.90;;
70825;SDS011;58446;41.490;22.098;2023-03-22T01:29:30;9.77;;;6.43;;
70825;SDS011;58446;41.490;22.098;2023-03-22T01:31:55;9.97;;;6.43;;
70825;SDS011;58446;41.490;22.098;2023-03-22T01:34:21;9.07;;;6.20;;
70825;SDS011;58446;41.490;22.098;2023-03-22T01:36:47;11.13;;;7.07;;
70825;SDS011;58446;41.490;22.098;2023-03-22T01:39:14;12.25;;;7.40;;
70825;SDS011;58446;41.490;22.098;2023-03-22T01:41:41;9.75;;;7.57;;
70825;SDS011;58446;41.490;22.098;2023-03-22T01:44:11;11.27;;;7.50;;
70825;SDS011;58446;41.490;22.098;2023-03-22T01:46:43;12.77;;;7.82;;
70825;SDS011;58446;41.490;22.098;2023-03-22T01:49:20;10.57;;;7.07;;
70825;SDS011;58446;41.490;22.098;2023-03-22T01:51:48;9.57;;;7.03;;
70825;SDS011;58446;41.490;22.098;2023-03-22T01:54:18;10.90;;;7.35;;
70825;SDS011;58446;41.490;22.098;2023-03-22T01:56:46;10.77;;;7.00;;
70825;SDS011;58446;41.490;22.098;2023-03-22T01:59:13;11.20;;;7.38;;
70825;SDS011;58446;41.490;22.098;2023-03-22T02:01:39;9.20;;;6.77;;
70825;SDS011;58446;41.490;22.098;2023-03-22T02:04:07;9.77;;;7.00;;
70825;SDS011;58446;41.490;22.098;2023-03-22T02:06:40;9.25;;;6.00;;
70825;SDS011;58446;41.490;22.098;2023-03-22T02:09:07;8.60;;;6.00;;
70825;SDS011;58446;41.490;22.098;2023-03-22T02:14:17;8.57;;;6.13;;
70825;SDS011;58446;41.490;22.098;2023-03-22T02:52:29;9.68;;;6.85;;
70825;SDS011;58446;41.490;22.098;2023-03-22T02:57:46;8.68;;;6.28;;
70825;SDS011;58446;41.490;22.098;2023-03-22T03:00:16;10.05;;;7.07;;
70825;SDS011;58446;41.490;22.098;2023-03-22T03:03:04;9.20;;;6.33;;
70825;SDS011;58446;41.490;22.098;2023-03-22T03:05:36;9.55;;;6.55;;
70825;SDS011;58446;41.490;22.098;2023-03-22T03:08:07;10.25;;;6.70;;
70825;SDS011;58446;41.490;22.098;2023-03-22T03:10:38;9.55;;;6.40;;
70825;SDS011;58446;41.490;22.098;2023-03-22T03:13:13;10.02;;;7.07;;
70825;SDS011;58446;41.490;22.098;2023-03-22T03:15:41;10.23;;;6.60;;
70825;SDS011;58446;41.490;22.098;2023-03-22T03:21:19;10.98;;;7.15;;
70825;SDS011;58446;41.490;22.098;2023-03-22T03:34:51;8.77;;;5.90;;
70825;SDS011;58446;41.490;22.098;2023-03-22T03:37:33;8.77;;;6.00;;
70825;SDS011;58446;41.490;22.098;2023-03-22T03:40:05;8.68;;;6.47;;
70825;SDS011;58446;41.490;22.098;2023-03-22T03:42:36;9.10;;;6.30;;
70825;SDS011;58446;41.490;22.098;2023-03-22T03:45:03;8.43;;;5.65;;
70825;SDS011;58446;41.490;22.098;2023-03-22T03:47:32;9.27;;;5.88;;
70825;SDS011;58446;41.490;22.098;2023-03-22T03:49:59;8.27;;;6.30;;
70825;SDS011;58446;41.490;22.098;2023-03-22T03:52:24;8.77;;;5.23;;
70825;SDS011;58446;41.490;22.098;2023-03-22T03:54:51;8.05;;;5.03;;
70825;SDS011;58446;41.490;22.098;2023-03-22T03:57:17;8.63;;;5.95;;
70825;SDS011;58446;41.490;22.098;2023-03-22T03:59:42;7.30;;;5.23;;
70825;SDS011;58446;41.490;22.098;2023-03-22T04:02:08;8.10;;;5.38;;
70825;SDS011;58446;41.490;22.098;2023-03-22T04:04:34;9.90;;;5.90;;
70825;SDS011;58446;41.490;22.098;2023-03-22T04:07:01;8.60;;;5.67;;
70825;SDS011;58446;41.490;22.098;2023-03-22T04:09:30;8.75;;;6.30;;
70825;SDS011;58446;41.490;22.098;2023-03-22T04:11:57;7.95;;;5.35;;
70825;SDS011;58446;41.490;22.098;2023-03-22T04:14:24;8.13;;;5.27;;
70825;SDS011;58446;41.490;22.098;2023-03-22T04:16:50;8.10;;;5.25;;
70825;SDS011;58446;41.490;22.098;2023-03-22T04:19:16;7.38;;;5.40;;
70825;SDS011;58446;41.490;22.098;2023-03-22T04:21:42;6.97;;;4.95;;
70825;SDS011;58446;41.490;22.098;2023-03-22T04:24:08;10.67;;;5.67;;
70825;SDS011;58446;41.490;22.098;2023-03-22T04:26:34;8.00;;;5.18;;
70825;SDS011;58446;41.490;22.098;2023-03-22T04:29:00;7.50;;;5.03;;
70825;SDS011;58446;41.490;22.098;2023-03-22T04:31:29;6.82;;;4.85;;
70825;SDS011;58446;41.490;22.098;2023-03-22T04:33:56;7.57;;;5.32;;
70825;SDS011;58446;41.490;22.098;2023-03-22T04:36:24;7.88;;;5.25;;
70825;SDS011;58446;41.490;22.098;2023-03-22T04:38:55;8.82;;;5.90;;
70825;SDS011;58446;41.490;22.098;2023-03-22T04:41:21;8.30;;;5.67;;
70825;SDS011;58446;41.490;22.098;2023-03-22T04:43:47;8.57;;;5.40;;
70825;SDS011;58446;41.490;22.098;2023-03-22T04:46:15;8.95;;;6.13;;
70825;SDS011;58446;41.490;22.098;2023-03-22T04:48:41;10.55;;;6.22;;
70825;SDS011;58446;41.490;22.098;2023-03-22T04:51:08;8.10;;;5.43;;
70825;SDS011;58446;41.490;22.098;2023-03-22T04:53:35;9.00;;;5.70;;
70825;SDS011;58446;41.490;22.098;2023-03-22T04:56:05;8.35;;;5.45;;
70825;SDS011;58446;41.490;22.098;2023-03-22T04:58:33;10.23;;;6.25;;
70825;SDS011;58446;41.490;22.098;2023-03-22T05:01:01;8.75;;;5.60;;
70825;SDS011;58446;41.490;22.098;2023-03-22T05:03:27;10.13;;;6.43;;
70825;SDS011;58446;41.490;22.098;2023-03-22T05:05:54;9.80;;;6.13;;
70825;SDS011;58446;41.490;22.098;2023-03-22T05:08:21;12.40;;;7.07;;
70825;SDS011;58446;41.490;22.098;2023-03-22T05:10:51;11.32;;;6.80;;
70825;SDS011;58446;41.490;22.098;2023-03-22T05:13:18;11.50;;;7.23;;
70825;SDS011;58446;41.490;22.098;2023-03-22T05:15:44;11.80;;;7.75;;
70825;SDS011;58446;41.490;22.098;2023-03-22T05:18:11;16.30;;;9.23;;
70825;SDS011;58446;41.490;22.098;2023-03-22T05:20:39;15.73;;;8.55;;
70825;SDS011;58446;41.490;22.098;2023-03-22T05:23:05;18.63;;;9.68;;
70825;SDS011;58446;41.490;22.098;2023-03-22T05:25:31;17.40;;;9.60;;
70825;SDS011;58446;41.490;22.098;2023-03-22T05:27:57;15.90;;;8.10;;
70825;SDS011;58446;41.490;22.098;2023-03-22T05:30:26;18.17;;;11.05;;
70825;SDS011;58446;41.490;22.098;2023-03-22T05:32:59;28.55;;;13.00;;
70825;SDS011;58446;41.490;22.098;2023-03-22T05:35:28;31.60;;;15.35;;
70825;SDS011;58446;41.490;22.098;2023-03-22T05:37:54;19.40;;;10.13;;
70825;SDS011;58446;41.490;22.098;2023-03-22T05:40:21;19.27;;;9.63;;
70825;SDS011;58446;41.490;22.098;2023-03-22T05:42:47;17.58;;;10.05;;
70825;SDS011;58446;41.490;22.098;2023-03-22T05:45:13;17.30;;;9.97;;
70825;SDS011;58446;41.490;22.098;2023-03-22T05:47:39;14.85;;;7.97;;
70825;SDS011;58446;41.490;22.098;2023-03-22T05:50:06;16.65;;;8.75;;
70825;SDS011;58446;41.490;22.098;2023-03-22T05:52:32;17.15;;;10.40;;
70825;SDS011;58446;41.490;22.098;2023-03-22T05:54:58;15.27;;;9.73;;
70825;SDS011;58446;41.490;22.098;2023-03-22T05:57:23;17.67;;;9.43;;
70825;SDS011;58446;41.490;22.098;2023-03-22T05:59:51;17.38;;;10.27;;
70825;SDS011;58446;41.490;22.098;2023-03-22T06:02:20;18.17;;;9.83;;
70825;SDS011;58446;41.490;22.098;2023-03-22T06:04:45;16.30;;;9.43;;
70825;SDS011;58446;41.490;22.098;2023-03-22T06:07:11;14.47;;;7.60;;
70825;SDS011;58446;41.490;22.098;2023-03-22T06:09:38;12.93;;;7.70;;
70825;SDS011;58446;41.490;22.098;2023-03-22T06:12:03;11.88;;;7.38;;
70825;SDS011;58446;41.490;22.098;2023-03-22T06:14:29;13.75;;;7.65;;
70825;SDS011;58446;41.490;22.098;2023-03-22T06:16:55;13.47;;;8.93;;
70825;SDS011;58446;41.490;22.098;2023-03-22T06:19:21;15.57;;;9.43;;
70825;SDS011;58446;41.490;22.098;2023-03-22T06:21:46;13.98;;;9.15;;
70825;SDS011;58446;41.490;22.098;2023-03-22T06:24:12;17.88;;;10.27;;
70825;SDS011;58446;41.490;22.098;2023-03-22T06:26:38;13.17;;;8.63;;
70825;SDS011;58446;41.490;22.098;2023-03-22T06:29:03;27.67;;;15.60;;
70825;SDS011;58446;41.490;22.098;2023-03-22T06:31:29;21.58;;;12.05;;
70825;SDS011;58446;41.490;22.098;2023-03-22T06:33:55;26.00;;;13.30;;
70825;SDS011;58446;41.490;22.098;2023-03-22T06:36:20;22.75;;;11.30;;
70825;SDS011;58446;41.490;22.098;2023-03-22T06:38:46;21.90;;;10.93;;
70825;SDS011;58446;41.490;22.098;2023-03-22T06:41:12;18.05;;;11.50;;
70825;SDS011;58446;41.490;22.098;2023-03-22T06:43:37;13.53;;;9.37;;
70825;SDS011;58446;41.490;22.098;2023-03-22T06:46:03;14.00;;;8.60;;
70825;SDS011;58446;41.490;22.098;2023-03-22T06:48:29;19.47;;;10.40;;
70825;SDS011;58446;41.490;22.098;2023-03-22T06:50:54;16.70;;;9.77;;
70825;SDS011;58446;41.490;22.098;2023-03-22T06:53:20;12.73;;;7.53;;
70825;SDS011;58446;41.490;22.098;2023-03-22T06:55:46;10.07;;;6.93;;
70825;SDS011;58446;41.490;22.098;2023-03-22T06:58:11;14.07;;;8.10;;
70825;SDS011;58446;41.490;22.098;2023-03-22T07:00:37;11.50;;;8.40;;
70825;SDS011;58446;41.490;22.098;2023-03-22T07:03:03;14.07;;;8.98;;
70825;SDS011;58446;41.490;22.098;2023-03-22T07:05:29;13.07;;;8.52;;
70825;SDS011;58446;41.490;22.098;2023-03-22T07:07:55;14.00;;;8.10;;
70825;SDS011;58446;41.490;22.098;2023-03-22T07:10:21;12.98;;;8.60;;
70825;SDS011;58446;41.490;22.098;2023-03-22T07:12:47;19.52;;;11.00;;
70825;SDS011;58446;41.490;22.098;2023-03-22T07:15:12;60.87;;;30.90;;
70825;SDS011;58446;41.490;22.098;2023-03-22T07:17:38;53.30;;;27.73;;
70825;SDS011;58446;41.490;22.098;2023-03-22T07:20:04;39.57;;;24.10;;
70825;SDS011;58446;41.490;22.098;2023-03-22T07:22:31;38.75;;;27.23;;
70825;SDS011;58446;41.490;22.098;2023-03-22T07:24:56;23.97;;;16.40;;
70825;SDS011;58446;41.490;22.098;2023-03-22T07:27:22;24.95;;;17.98;;
70825;SDS011;58446;41.490;22.098;2023-03-22T07:29:47;17.33;;;13.87;;
70825;SDS011;58446;41.490;22.098;2023-03-22T07:32:13;22.40;;;14.05;;
70825;SDS011;58446;41.490;22.098;2023-03-22T07:34:39;22.73;;;14.83;;
70825;SDS011;58446;41.490;22.098;2023-03-22T07:37:04;14.23;;;9.38;;
70825;SDS011;58446;41.490;22.098;2023-03-22T07:39:32;14.53;;;9.57;;
70825;SDS011;58446;41.490;22.098;2023-03-22T07:41:58;18.58;;;12.30;;
70825;SDS011;58446;41.490;22.098;2023-03-22T07:44:24;15.13;;;10.38;;
70825;SDS011;58446;41.490;22.098;2023-03-22T07:46:50;11.00;;;7.55;;
70825;SDS011;58446;41.490;22.098;2023-03-22T07:49:16;14.23;;;9.47;;
70825;SDS011;58446;41.490;22.098;2023-03-22T07:51:43;17.02;;;10.60;;
70825;SDS011;58446;41.490;22.098;2023-03-22T07:54:09;15.30;;;10.38;;
70825;SDS011;58446;41.490;22.098;2023-03-22T07:56:35;15.57;;;9.87;;
70825;SDS011;58446;41.490;22.098;2023-03-22T07:59:01;17.08;;;11.10;;
70825;SDS011;58446;41.490;22.098;2023-03-22T08:01:26;18.67;;;12.52;;
70825;SDS011;58446;41.490;22.098;2023-03-22T08:03:52;16.40;;;10.80;;
70825;SDS011;58446;41.490;22.098;2023-03-22T08:06:18;16.77;;;10.53;;
70825;SDS011;58446;41.490;22.098;2023-03-22T08:08:45;20.35;;;12.20;;
70825;SDS011;58446;41.490;22.098;2023-03-22T08:11:11;17.63;;;12.25;;
70825;SDS011;58446;41.490;22.098;2023-03-22T08:13:37;15.65;;;10.25;;
70825;SDS011;58446;41.490;22.098;2023-03-22T08:16:04;14.47;;;9.20;;
70825;SDS011;58446;41.490;22.098;2023-03-22T08:18:30;10.90;;;8.05;;
70825;SDS011;58446;41.490;22.098;2023-03-22T08:20:57;9.88;;;7.20;;
70825;SDS011;58446;41.490;22.098;2023-03-22T08:23:24;12.27;;;7.70;;
70825;SDS011;58446;41.490;22.098;2023-03-22T08:25:51;13.68;;;8.73;;
70825;SDS011;58446;41.490;22.098;2023-03-22T08:28:17;11.10;;;7.67;;
70825;SDS011;58446;41.490;22.098;2023-03-22T08:30:44;8.30;;;5.82;;
70825;SDS011;58446;41.490;22.098;2023-03-22T08:33:12;10.90;;;6.30;;
70825;SDS011;58446;41.490;22.098;2023-03-22T08:35:38;13.27;;;7.68;;
70825;SDS011;58446;41.490;22.098;2023-03-22T08:38:04;13.75;;;8.93;;
70825;SDS011;58446;41.490;22.098;2023-03-22T08:40:31;15.80;;;10.43;;
70825;SDS011;58446;41.490;22.098;2023-03-22T08:42:57;12.80;;;8.50;;
70825;SDS011;58446;41.490;22.098;2023-03-22T08:45:23;15.33;;;9.73;;
70825;SDS011;58446;41.490;22.098;2023-03-22T08:47:49;13.43;;;10.07;;
70825;SDS011;58446;41.490;22.098;2023-03-22T08:50:15;13.43;;;8.68;;
70825;SDS011;58446;41.490;22.098;2023-03-22T08:52:40;11.95;;;7.88;;
70825;SDS011;58446;41.490;22.098;2023-03-22T08:55:07;13.70;;;8.70;;
70825;SDS011;58446;41.490;22.098;2023-03-22T08:57:34;13.30;;;8.70;;
70825;SDS011;58446;41.490;22.098;2023-03-22T09:00:00;17.95;;;9.38;;
70825;SDS011;58446;41.490;22.098;2023-03-22T09:02:26;17.00;;;12.13;;
70825;SDS011;58446;41.490;22.098;2023-03-22T09:04:51;12.85;;;8.90;;
70825;SDS011;58446;41.490;22.098;2023-03-22T09:07:18;16.17;;;12.52;;
70825;SDS011;58446;41.490;22.098;2023-03-22T09:09:44;21.25;;;15.48;;
70825;SDS011;58446;41.490;22.098;2023-03-22T09:12:11;16.10;;;11.03;;
70825;SDS011;58446;41.490;22.098;2023-03-22T09:14:37;15.32;;;11.13;;
70825;SDS011;58446;41.490;22.098;2023-03-22T09:17:03;11.50;;;8.88;;
70825;SDS011;58446;41.490;22.098;2023-03-22T09:19:29;11.93;;;8.82;;
70825;SDS011;58446;41.490;22.098;2023-03-22T09:21:55;12.03;;;9.30;;
70825;SDS011;58446;41.490;22.098;2023-03-22T09:24:21;15.52;;;10.75;;
70825;SDS011;58446;41.490;22.098;2023-03-22T09:26:47;21.90;;;13.32;;
70825;SDS011;58446;41.490;22.098;2023-03-22T09:29:13;21.77;;;12.80;;
70825;SDS011;58446;41.490;22.098;2023-03-22T09:31:39;22.83;;;14.40;;
70825;SDS011;58446;41.490;22.098;2023-03-22T09:34:05;22.38;;;12.90;;
70825;SDS011;58446;41.490;22.098;2023-03-22T09:36:31;28.57;;;15.33;;
70825;SDS011;58446;41.490;22.098;2023-03-22T09:38:57;18.30;;;12.00;;
70825;SDS011;58446;41.490;22.098;2023-03-22T09:41:32;23.27;;;14.60;;
70825;SDS011;58446;41.490;22.098;2023-03-22T09:44:05;16.47;;;11.67;;
70825;SDS011;58446;41.490;22.098;2023-03-22T09:46:41;17.15;;;11.30;;
70825;SDS011;58446;41.490;22.098;2023-03-22T09:49:17;22.02;;;14.05;;
70825;SDS011;58446;41.490;22.098;2023-03-22T09:51:45;24.70;;;17.15;;
70825;SDS011;58446;41.490;22.098;2023-03-22T09:54:14;25.05;;;16.98;;
70825;SDS011;58446;41.490;22.098;2023-03-22T09:56:51;21.40;;;15.10;;
70825;SDS011;58446;41.490;22.098;2023-03-22T10:02:16;22.40;;;13.98;;
70825;SDS011;58446;41.490;22.098;2023-03-22T10:10:39;29.13;;;19.53;;
70825;SDS011;58446;41.490;22.098;2023-03-22T10:13:27;33.67;;;19.23;;
70825;SDS011;58446;41.490;22.098;2023-03-22T10:15:58;31.13;;;19.88;;
70825;SDS011;58446;41.490;22.098;2023-03-22T10:18:33;31.08;;;19.40;;
70825;SDS011;58446;41.490;22.098;2023-03-22T10:21:02;29.30;;;19.80;;
70825;SDS011;58446;41.490;22.098;2023-03-22T10:23:43;30.60;;;18.97;;
70825;SDS011;58446;41.490;22.098;2023-03-22T10:26:33;30.30;;;20.05;;
70825;SDS011;58446;41.490;22.098;2023-03-22T10:29:25;29.27;;;18.55;;
70825;SDS011;58446;41.490;22.098;2023-03-22T10:31:54;31.08;;;20.65;;
70825;SDS011;58446;41.490;22.098;2023-03-22T10:34:21;37.25;;;21.80;;
70825;SDS011;58446;41.490;22.098;2023-03-22T10:37:01;30.80;;;19.77;;
70825;SDS011;58446;41.490;22.098;2023-03-22T10:39:39;37.17;;;20.75;;
70825;SDS011;58446;41.490;22.098;2023-03-22T10:42:12;32.35;;;20.27;;
70825;SDS011;58446;41.490;22.098;2023-03-22T10:44:47;29.23;;;18.75;;
70825;SDS011;58446;41.490;22.098;2023-03-22T10:47:16;31.55;;;19.10;;
70825;SDS011;58446;41.490;22.098;2023-03-22T10:49:51;29.20;;;17.67;;
70825;SDS011;58446;41.490;22.098;2023-03-22T10:54:59;30.70;;;18.88;;
70825;SDS011;58446;41.490;22.098;2023-03-22T10:57:24;28.23;;;19.10;;
70825;SDS011;58446;41.490;22.098;2023-03-22T10:59:50;28.57;;;18.20;;
70825;SDS011;58446;41.490;22.098;2023-03-22T11:02:24;31.48;;;20.35;;
70825;SDS011;58446;41.490;22.098;2023-03-22T11:04:53;29.20;;;19.45;;
70825;SDS011;58446;41.490;22.098;2023-03-22T11:07:29;24.60;;;18.40;;
70825;SDS011;58446;41.490;22.098;2023-03-22T11:12:34;24.35;;;17.55;;
70825;SDS011;58446;41.490;22.098;2023-03-22T11:15:02;29.75;;;19.50;;
70825;SDS011;58446;41.490;22.098;2023-03-22T11:17:29;25.73;;;16.73;;
70825;SDS011;58446;41.490;22.098;2023-03-22T11:19:58;24.60;;;17.57;;
70825;SDS011;58446;41.490;22.098;2023-03-22T11:22:38;23.83;;;15.88;;
70825;SDS011;58446;41.490;22.098;2023-03-22T11:25:13;24.63;;;18.05;;
70825;SDS011;58446;41.490;22.098;2023-03-22T11:27:53;28.92;;;18.98;;
70825;SDS011;58446;41.490;22.098;2023-03-22T11:35:38;27.00;;;17.40;;
70825;SDS011;58446;41.490;22.098;2023-03-22T11:38:04;21.27;;;14.93;;
70825;SDS011;58446;41.490;22.098;2023-03-22T11:40:33;30.38;;;19.92;;
70825;SDS011;58446;41.490;22.098;2023-03-22T11:43:14;29.73;;;18.58;;
70825;SDS011;58446;41.490;22.098;2023-03-22T11:45:43;30.40;;;19.53;;
70825;SDS011;58446;41.490;22.098;2023-03-22T11:48:28;40.03;;;24.42;;
70825;SDS011;58446;41.490;22.098;2023-03-22T11:51:13;31.60;;;22.20;;
70825;SDS011;58446;41.490;22.098;2023-03-22T11:53:45;29.60;;;20.90;;
70825;SDS011;58446;41.490;22.098;2023-03-22T11:56:14;31.13;;;20.92;;
70825;SDS011;58446;41.490;22.098;2023-03-22T11:58:46;41.20;;;23.40;;
70825;SDS011;58446;41.490;22.098;2023-03-22T12:01:26;27.30;;;18.60;;
70825;SDS011;58446;41.490;22.098;2023-03-22T12:04:04;28.88;;;18.20;;
70825;SDS011;58446;41.490;22.098;2023-03-22T12:06:36;28.80;;;18.42;;
70825;SDS011;58446;41.490;22.098;2023-03-22T12:09:06;28.50;;;18.40;;
70825;SDS011;58446;41.490;22.098;2023-03-22T12:11:52;29.77;;;18.43;;
70825;SDS011;58446;41.490;22.098;2023-03-22T12:14:27;28.50;;;19.83;;
70825;SDS011;58446;41.490;22.098;2023-03-22T12:17:00;26.17;;;17.85;;
70825;SDS011;58446;41.490;22.098;2023-03-22T12:22:30;23.55;;;15.98;;
70825;SDS011;58446;41.490;22.098;2023-03-22T12:24:57;23.63;;;15.63;;
70825;SDS011;58446;41.490;22.098;2023-03-22T12:27:25;23.65;;;16.27;;
70825;SDS011;58446;41.490;22.098;2023-03-22T12:29:57;24.58;;;16.67;;
70825;SDS011;58446;41.490;22.098;2023-03-22T12:32:34;29.20;;;18.77;;
70825;SDS011;58446;41.490;22.098;2023-03-22T12:35:06;28.10;;;16.95;;
70825;SDS011;58446;41.490;22.098;2023-03-22T12:37:38;21.43;;;13.67;;
70825;SDS011;58446;41.490;22.098;2023-03-22T12:42:53;22.80;;;15.65;;
70825;SDS011;58446;41.490;22.098;2023-03-22T12:45:25;25.10;;;16.92;;
70825;SDS011;58446;41.490;22.098;2023-03-22T12:48:13;25.02;;;16.30;;
70825;SDS011;58446;41.490;22.098;2023-03-22T12:50:46;22.93;;;15.93;;
70825;SDS011;58446;41.490;22.098;2023-03-22T12:53:17;22.55;;;15.02;;
70825;SDS011;58446;41.490;22.098;2023-03-22T12:55:45;27.38;;;16.80;;
70825;SDS011;58446;41.490;22.098;2023-03-22T12:58:13;22.50;;;14.20;;
70825;SDS011;58446;41.490;22.098;2023-03-22T13:00:56;24.00;;;16.42;;
70825;SDS011;58446;41.490;22.098;2023-03-22T13:03:29;22.43;;;14.00;;
70825;SDS011;58446;41.490;22.098;2023-03-22T13:06:06;25.00;;;13.48;;
70825;SDS011;58446;41.490;22.098;2023-03-22T13:11:42;18.30;;;10.10;;
70825;SDS011;58446;41.490;22.098;2023-03-22T13:14:52;23.55;;;14.02;;
70825;SDS011;58446;41.490;22.098;2023-03-22T13:19:57;18.20;;;11.30;;
70825;SDS011;58446;41.490;22.098;2023-03-22T13:30:22;21.58;;;14.02;;
70825;SDS011;58446;41.490;22.098;2023-03-22T13:32:56;19.55;;;11.43;;
70825;SDS011;58446;41.490;22.098;2023-03-22T13:35:49;16.83;;;11.38;;
70825;SDS011;58446;41.490;22.098;2023-03-22T13:46:02;15.53;;;9.80;;
70825;SDS011;58446;41.490;22.098;2023-03-22T13:48:50;17.33;;;10.27;;
70825;SDS011;58446;41.490;22.098;2023-03-22T13:51:39;14.02;;;9.23;;
70825;SDS011;58446;41.490;22.098;2023-03-22T13:56:52;16.25;;;10.73;;
70825;SDS011;58446;41.490;22.098;2023-03-22T14:07:24;14.82;;;10.43;;
70825;SDS011;58446;41.490;22.098;2023-03-22T14:09:56;15.07;;;10.60;;
70825;SDS011;58446;41.490;22.098;2023-03-22T14:12:44;15.97;;;10.90;;
70825;SDS011;58446;41.490;22.098;2023-03-22T14:16:30;15.00;;;10.98;;
70825;SDS011;58446;41.490;22.098;2023-03-22T14:18:32;17.67;;;11.60;;
70825;SDS011;58446;41.490;22.098;2023-03-22T14:21:05;17.80;;;11.02;;
70825;SDS011;58446;41.490;22.098;2023-03-22T14:23:34;19.08;;;12.75;;
70825;SDS011;58446;41.490;22.098;2023-03-22T14:28:39;20.13;;;12.60;;
70825;SDS011;58446;41.490;22.098;2023-03-22T14:31:26;21.63;;;14.90;;
70825;SDS011;58446;41.490;22.098;2023-03-22T14:33:53;21.60;;;14.38;;
70825;SDS011;58446;41.490;22.098;2023-03-22T14:36:20;21.05;;;16.10;;
70825;SDS011;58446;41.490;22.098;2023-03-22T14:38:47;25.60;;;15.53;;
70825;SDS011;58446;41.490;22.098;2023-03-22T14:41:21;27.60;;;16.70;;
70825;SDS011;58446;41.490;22.098;2023-03-22T14:43:59;25.88;;;16.20;;
70825;SDS011;58446;41.490;22.098;2023-03-22T14:46:35;22.90;;;15.52;;
70825;SDS011;58446;41.490;22.098;2023-03-22T14:49:03;26.50;;;15.55;;
70825;SDS011;58446;41.490;22.098;2023-03-22T14:51:36;26.33;;;16.20;;
70825;SDS011;58446;41.490;22.098;2023-03-22T14:54:08;24.77;;;16.48;;
70825;SDS011;58446;41.490;22.098;2023-03-22T14:56:40;22.88;;;15.32;;
70825;SDS011;58446;41.490;22.098;2023-03-22T14:59:10;24.30;;;16.17;;
70825;SDS011;58446;41.490;22.098;2023-03-22T15:01:40;23.15;;;16.35;;
70825;SDS011;58446;41.490;22.098;2023-03-22T15:04:08;26.93;;;17.30;;
70825;SDS011;58446;41.490;22.098;2023-03-22T15:06:42;23.42;;;15.88;;
70825;SDS011;58446;41.490;22.098;2023-03-22T15:09:10;26.50;;;16.55;;
70825;SDS011;58446;41.490;22.098;2023-03-22T15:11:38;24.05;;;15.95;;
70825;SDS011;58446;41.490;22.098;2023-03-22T15:14:05;26.40;;;17.27;;
70825;SDS011;58446;41.490;22.098;2023-03-22T15:16:32;28.50;;;18.57;;
70825;SDS011;58446;41.490;22.098;2023-03-22T15:18:59;29.45;;;20.25;;
70825;SDS011;58446;41.490;22.098;2023-03-22T15:21:26;38.58;;;22.48;;
70825;SDS011;58446;41.490;22.098;2023-03-22T15:23:53;50.40;;;31.67;;
70825;SDS011;58446;41.490;22.098;2023-03-22T15:26:21;50.85;;;36.60;;
70825;SDS011;58446;41.490;22.098;2023-03-22T15:31:19;59.25;;;38.00;;
70825;SDS011;58446;41.490;22.098;2023-03-22T15:33:50;47.70;;;31.88;;
70825;SDS011;58446;41.490;22.098;2023-03-22T15:36:18;45.00;;;28.80;;
70825;SDS011;58446;41.490;22.098;2023-03-22T15:38:44;39.17;;;25.02;;
70825;SDS011;58446;41.490;22.098;2023-03-22T15:43:59;21.73;;;12.63;;
70825;SDS011;58446;41.490;22.098;2023-03-22T15:46:29;12.13;;;7.13;;
70825;SDS011;58446;41.490;22.098;2023-03-22T15:49:16;11.77;;;6.50;;
70825;SDS011;58446;41.490;22.098;2023-03-22T15:51:49;6.25;;;3.30;;
70825;SDS011;58446;41.490;22.098;2023-03-22T15:54:18;7.35;;;5.18;;
70825;SDS011;58446;41.490;22.098;2023-03-22T15:56:47;5.57;;;3.05;;
70825;SDS011;58446;41.490;22.098;2023-03-22T15:59:20;6.35;;;3.20;;
70825;SDS011;58446;41.490;22.098;2023-03-22T16:01:49;6.70;;;2.90;;
70825;SDS011;58446;41.490;22.098;2023-03-22T16:04:19;6.30;;;4.00;;
70825;SDS011;58446;41.490;22.098;2023-03-22T16:06:47;8.65;;;5.45;;
70825;SDS011;58446;41.490;22.098;2023-03-22T16:09:13;8.85;;;4.70;;
70825;SDS011;58446;41.490;22.098;2023-03-22T16:11:39;10.23;;;5.88;;
70825;SDS011;58446;41.490;22.098;2023-03-22T16:14:06;13.60;;;9.27;;
70825;SDS011;58446;41.490;22.098;2023-03-22T16:16:35;9.80;;;5.93;;
70825;SDS011;58446;41.490;22.098;2023-03-22T16:19:01;30.42;;;11.98;;
70825;SDS011;58446;41.490;22.098;2023-03-22T16:21:27;55.63;;;20.80;;
70825;SDS011;58446;41.490;22.098;2023-03-22T16:23:55;91.15;;;28.65;;
70825;SDS011;58446;41.490;22.098;2023-03-22T16:26:22;75.68;;;24.65;;
70825;SDS011;58446;41.490;22.098;2023-03-22T16:28:47;32.53;;;15.17;;
70825;SDS011;58446;41.490;22.098;2023-03-22T16:31:14;28.42;;;15.52;;